Terminal Aerodrome Forecast
Issued by NWS Blacksburg, VA

Home | Current Version | Previous Version | Text Only | Print | Product List | Glossary On
Versions: 1 2 3 4 5 6 7 8 9 10 11 12 13
000
FTUS41 KRNK 181137
TAFLYH
TAF
KLYH 181137Z 1812/1912 06006KT P6SM OVC015
     FM181500 05008KT P6SM SCT020 OVC150
     FM190000 04010G16KT P6SM SCT020 OVC100
     FM190700 07012G18KT P6SM -RA OVC015=

USA.gov is the U.S. government's official web portal to all federal, state and local government web resources and services.